New Delhi, India

4:18 PM IST on October 31, 2014 (GMT +0530)
Indira Gandhi International | Change Station
CLOSE
Current Station
Airport
Location: New Delhi,
Elevation: 764 ft
Nearby Weather Stations

Elev 764 ft 28.57 °N, 77.12 °E | Updated 18 minutes ago

Smoke
Smoke
84 °F
Feels Like 84 °F
N
7
Wind Variable Wind from NW

Today
High -- | Low -- °F
--% Chance of Precip.
Yesterday
High -- | Low -- °F
Precip. -- in
6:32 AM 5:37 PM
First Quarter, 54% visible
Pressure 29.92 in
Visibility 1.0 miles
Clouds Scattered Clouds 10000 ft
Dew Point 52 °F
Humidity 33%
Rainfall 0.00 in
Snow Depth Not available.
UV 1 out of 12
Pollen Not available.
Air Quality Not available.
Flu Activity Not available.
METAR VIDP 311030Z 32006KT 1600 R28/P2000 R29/1700 FU SCT100 29/11 Q1013 NOSIG

More Conditions Fewer Conditions

Pressure 29.92 in
Visibility 1.0 miles
Clouds Scattered Clouds 10000 ft
Dew Point 52 °F
Humidity 33%
Rainfall 0.00 in
Snow Depth Not available.
UV 1 out of 12
Pollen Not available.
Air Quality Not available.
Flu Activity Not available.
METAR VIDP 311030Z 32006KT 1600 R28/P2000 R29/1700 FU SCT100 29/11 Q1013 NOSIG

More Conditions Fewer Conditions

10-Day Weather Forecast

Almanac

Astronomy

Oct. 31, 2014 Rise Set
Actual Time
Civil Twilight
Nautical Twilight
Astronomical Twilight
Moon
Length of Visible Light
Length of Day
Tomorrow will be .
, % of the Moon is Illuminated

Today's Extremes

Country Highs Country Lows

Community

WunderPhotos

Upload Photos

1,766,580 photos uploaded!

WunderBlogs® & News

Nearby

Air Quality

  Air Quality AQ Index Pollutant
Not available.

Snow Depth

Station Depth Elevation

Earthquake Activity

City Distance Mag. Time & Date
Minimum magnitude displayed is 2.5.

Coastal Water Temperatures

Place Temperature

Nearby Weather Stations